Wilson Mersin — P3PA6 — position and weather

sailwx.info

Track history (hours):
 
Tides and Currents Weather Stations Pressure Air Temp Water Temp Dewpoint Dewpoint Depression Visibility Wind Speed Wind Dir Waves Ship Positions

Wilson Mersin

Last reported at 2016-May-01 20:32 UTC. Time now 2016-May-01 21:18 UTC.
Position N 53°36' E 006°17'.

Length 107 m; draft 4.6 m.

Type: Cargo ship. MMSI: 210072000.

Date/timePositionNaut miles runAvg speedWind from/ knotsBaromVisibWave heightAir tempDewpointWater temp
2016-May-01 20:32N 53°36' E 006°17'0 0.0
2016-May-01 19:32N 53°36' E 006°17'0 0.0
2016-May-01 18:32N 53°36' E 006°17'0 0.0
2016-May-01 17:26N 53°36' E 006°17'0 0.1
2016-May-01 16:29N 53°36' E 006°17'0 0.0
2016-May-01 15:31N 53°36' E 006°17'0 0.0
2016-May-01 14:29N 53°36' E 006°17'0 0.0
2016-May-01 13:32N 53°36' E 006°17'7 6.9
2016-May-01 12:33N 53°37' E 006°28'1110.5
2016-May-01 11:33N 53°32' E 006°44'1211.8
2016-May-01 10:34N 53°23' E 006°58'9 8.8
2016-May-01 09:33N 53°20' E 007°11'1 1.1
2016-May-01 08:31N 53°21' E 007°13'0 0.0
2016-May-01 07:31N 53°21' E 007°13'0 0.0
2016-May-01 06:31N 53°21' E 007°13'0 0.0
2016-May-01 05:31N 53°21' E 007°13'0 0.0
2016-May-01 04:13N 53°21' E 007°13'0 0.0
2016-May-01 03:22N 53°21' E 007°13'0 0.0
2016-May-01 02:31N 53°21' E 007°13'0 0.0
2016-May-01 01:28N 53°21' E 007°13'0 0.0
2016-May-01 00:28N 53°21' E 007°13'0 0.0
2016-Apr-30 23:31N 53°21' E 007°13'0 0.0
2016-Apr-30 22:28N 53°21' E 007°13'0 0.0
2016-Apr-30 21:31N 53°21' E 007°13'0 0.0
2016-Apr-30 20:28N 53°21' E 007°13'0 0.0
2016-Apr-30 19:31N 53°21' E 007°13'0 0.0
2016-Apr-30 18:19N 53°21' E 007°13'0 0.0
2016-Apr-30 17:31N 53°21' E 007°13'0 0.0
2016-Apr-30 16:31N 53°21' E 007°13'0 0.0
2016-Apr-30 15:28N 53°21' E 007°13'0 0.0
2016-Apr-30 14:31N 53°21' E 007°13'0 0.0
2016-Apr-30 13:31N 53°21' E 007°13'0 0.0
2016-Apr-30 12:28N 53°21' E 007°13'0 0.0
2016-Apr-30 11:28N 53°21' E 007°13'0 0.0
2016-Apr-30 10:31N 53°21' E 007°13'0 0.0
2016-Apr-30 09:31N 53°21' E 007°13'0 0.0
2016-Apr-30 08:31N 53°21' E 007°13'0 0.0
2016-Apr-30 07:31N 53°21' E 007°13'0 0.0
2016-Apr-30 06:22N 53°21' E 007°13'0 0.0
2016-Apr-30 04:25N 53°21' E 007°13'0 0.0
2016-Apr-30 03:31N 53°21' E 007°13'0 0.0
2016-Apr-30 02:28N 53°21' E 007°13'0 0.0
2016-Apr-30 01:31N 53°21' E 007°13'0 0.0
2016-Apr-30 00:31N 53°21' E 007°13'0 0.0
2016-Apr-29 23:31N 53°21' E 007°13'0 0.0
2016-Apr-29 22:28N 53°21' E 007°13'0 0.0
2016-Apr-29 21:31N 53°21' E 007°13'0 0.0
2016-Apr-29 20:31N 53°21' E 007°13'1 0.8
2016-Apr-29 19:33N 53°21' E 007°12'2 2.1
2016-Apr-29 18:33N 53°20' E 007°08'7 6.6
2016-Apr-29 17:33N 53°22' E 006°58'9 9.3
2016-Apr-29 16:33N 53°30' E 006°49'1110.6
2016-Apr-29 15:33N 53°36' E 006°34'1010.3
2016-Apr-29 14:33N 53°38' E 006°17'29510.5
2016-Apr-28 10:26N 58°30' E 004°56'1011.9
2016-Apr-28 09:33N 58°40' E 004°52'  
2016-Apr-24 03:33N 59°16' E 004°41'9 9.2
2016-Apr-24 02:33N 59°08' E 004°49'9 9.3
2016-Apr-24 01:33N 58°60' E 004°59'9 8.7
2016-Apr-24 00:33N 58°52' E 005°07'9 9.4
2016-Apr-23 23:33N 58°44' E 005°17'1010.0
2016-Apr-23 22:33N 58°35' E 005°26'10 9.8
2016-Apr-23 21:33N 58°27' E 005°36'1110.5
2016-Apr-23 20:33N 58°20' E 005°51'1010.4
2016-Apr-23 19:33N 58°13' E 006°05'1010.3
2016-Apr-23 18:32N 58°06' E 006°20'1010.5
2016-Apr-23 17:33N 57°59' E 006°35'1010.1
2016-Apr-23 16:33N 57°52' E 006°48'1111.1
2016-Apr-23 15:33N 57°52' E 007°09'10311.3
2016-Apr-23 06:23N 57°49' E 010°23'1011.7
2016-Apr-23 05:33N 57°49' E 010°42'11 1.6
2016-Apr-22 22:33N 57°38' E 010°49'1211.7
2016-Apr-22 21:33N 57°33' E 011°08'1111.2
2016-Apr-22 20:33N 57°28' E 011°26'1111.2
2016-Apr-22 19:33N 57°17' E 011°34'1111.3
2016-Apr-22 18:33N 57°06' E 011°40'1111.5
2016-Apr-22 17:33N 56°56' E 011°47'1111.5
2016-Apr-22 16:33N 56°45' E 011°54'1111.1
2016-Apr-22 15:33N 56°34' E 011°59'1111.3
2016-Apr-22 14:33N 56°24' E 012°10'1111.4
2016-Apr-22 13:33N 56°15' E 012°22'1110.7
2016-Apr-22 12:33N 56°07' E 012°34'9 9.1
2016-Apr-22 11:33N 55°59' E 012°42'10 9.9
2016-Apr-22 10:33N 55°49' E 012°43'1110.7
2016-Apr-22 09:33N 55°38' E 012°42'1010.0
2016-Apr-22 08:33N 55°28' E 012°42'1010.3
2016-Apr-22 07:33N 55°18' E 012°43'1110.6
2016-Apr-22 06:33N 55°13' E 012°59'8210.2
2016-Apr-21 22:33N 54°04' E 014°15'9 9.1
2016-Apr-21 21:33N 53°55' E 014°16'8 8.2
2016-Apr-21 20:33N 53°47' E 014°22'  
Track history (hours):
 
Tides and Currents Weather Stations Pressure Air Temp Water Temp Dewpoint Dewpoint Depression Visibility Wind Speed Wind Dir Waves Ship Positions

Wilson Mersin

Last reported at 2016-May-01 20:32 UTC. Time now 2016-May-01 21:18 UTC.
Position N 53°36' E 006°17'.

Length 107 m; draft 4.6 m.

Type: Cargo ship. MMSI: 210072000.

Date/timePositionNaut miles runAvg speedWind from/ knotsBaromVisibWave heightAir tempDewpointWater temp
2016-May-01 20:32N 53°36' E 006°17'0 0.0
2016-May-01 19:32N 53°36' E 006°17'0 0.0
2016-May-01 18:32N 53°36' E 006°17'0 0.0
2016-May-01 17:26N 53°36' E 006°17'0 0.1
2016-May-01 16:29N 53°36' E 006°17'0 0.0
2016-May-01 15:31N 53°36' E 006°17'0 0.0
2016-May-01 14:29N 53°36' E 006°17'0 0.0
2016-May-01 13:32N 53°36' E 006°17'7 6.9
2016-May-01 12:33N 53°37' E 006°28'1110.5
2016-May-01 11:33N 53°32' E 006°44'1211.8
2016-May-01 10:34N 53°23' E 006°58'9 8.8
2016-May-01 09:33N 53°20' E 007°11'1 1.1
2016-May-01 08:31N 53°21' E 007°13'0 0.0
2016-May-01 07:31N 53°21' E 007°13'0 0.0
2016-May-01 06:31N 53°21' E 007°13'0 0.0
2016-May-01 05:31N 53°21' E 007°13'0 0.0
2016-May-01 04:13N 53°21' E 007°13'0 0.0
2016-May-01 03:22N 53°21' E 007°13'0 0.0
2016-May-01 02:31N 53°21' E 007°13'0 0.0
2016-May-01 01:28N 53°21' E 007°13'0 0.0
2016-May-01 00:28N 53°21' E 007°13'0 0.0
2016-Apr-30 23:31N 53°21' E 007°13'0 0.0
2016-Apr-30 22:28N 53°21' E 007°13'0 0.0
2016-Apr-30 21:31N 53°21' E 007°13'0 0.0
2016-Apr-30 20:28N 53°21' E 007°13'0 0.0
2016-Apr-30 19:31N 53°21' E 007°13'0 0.0
2016-Apr-30 18:19N 53°21' E 007°13'0 0.0
2016-Apr-30 17:31N 53°21' E 007°13'0 0.0
2016-Apr-30 16:31N 53°21' E 007°13'0 0.0
2016-Apr-30 15:28N 53°21' E 007°13'0 0.0
2016-Apr-30 14:31N 53°21' E 007°13'0 0.0
2016-Apr-30 13:31N 53°21' E 007°13'0 0.0
2016-Apr-30 12:28N 53°21' E 007°13'0 0.0
2016-Apr-30 11:28N 53°21' E 007°13'0 0.0
2016-Apr-30 10:31N 53°21' E 007°13'0 0.0
2016-Apr-30 09:31N 53°21' E 007°13'0 0.0
2016-Apr-30 08:31N 53°21' E 007°13'0 0.0
2016-Apr-30 07:31N 53°21' E 007°13'0 0.0
2016-Apr-30 06:22N 53°21' E 007°13'0 0.0
2016-Apr-30 04:25N 53°21' E 007°13'0 0.0
2016-Apr-30 03:31N 53°21' E 007°13'0 0.0
2016-Apr-30 02:28N 53°21' E 007°13'0 0.0
2016-Apr-30 01:31N 53°21' E 007°13'0 0.0
2016-Apr-30 00:31N 53°21' E 007°13'0 0.0
2016-Apr-29 23:31N 53°21' E 007°13'0 0.0
2016-Apr-29 22:28N 53°21' E 007°13'0 0.0
2016-Apr-29 21:31N 53°21' E 007°13'0 0.0
2016-Apr-29 20:31N 53°21' E 007°13'1 0.8
2016-Apr-29 19:33N 53°21' E 007°12'2 2.1
2016-Apr-29 18:33N 53°20' E 007°08'7 6.6
2016-Apr-29 17:33N 53°22' E 006°58'9 9.3
2016-Apr-29 16:33N 53°30' E 006°49'1110.6
2016-Apr-29 15:33N 53°36' E 006°34'1010.3
2016-Apr-29 14:33N 53°38' E 006°17'29510.5
2016-Apr-28 10:26N 58°30' E 004°56'1011.9
2016-Apr-28 09:33N 58°40' E 004°52'  
2016-Apr-24 03:33N 59°16' E 004°41'9 9.2
2016-Apr-24 02:33N 59°08' E 004°49'9 9.3
2016-Apr-24 01:33N 58°60' E 004°59'9 8.7
2016-Apr-24 00:33N 58°52' E 005°07'9 9.4
2016-Apr-23 23:33N 58°44' E 005°17'1010.0
2016-Apr-23 22:33N 58°35' E 005°26'10 9.8
2016-Apr-23 21:33N 58°27' E 005°36'1110.5
2016-Apr-23 20:33N 58°20' E 005°51'1010.4
2016-Apr-23 19:33N 58°13' E 006°05'1010.3
2016-Apr-23 18:32N 58°06' E 006°20'1010.5
2016-Apr-23 17:33N 57°59' E 006°35'1010.1
2016-Apr-23 16:33N 57°52' E 006°48'1111.1
2016-Apr-23 15:33N 57°52' E 007°09'10311.3
2016-Apr-23 06:23N 57°49' E 010°23'1011.7
2016-Apr-23 05:33N 57°49' E 010°42'11 1.6
2016-Apr-22 22:33N 57°38' E 010°49'1211.7
2016-Apr-22 21:33N 57°33' E 011°08'1111.2
2016-Apr-22 20:33N 57°28' E 011°26'1111.2
2016-Apr-22 19:33N 57°17' E 011°34'1111.3
2016-Apr-22 18:33N 57°06' E 011°40'1111.5
2016-Apr-22 17:33N 56°56' E 011°47'1111.5
2016-Apr-22 16:33N 56°45' E 011°54'1111.1
2016-Apr-22 15:33N 56°34' E 011°59'1111.3
2016-Apr-22 14:33N 56°24' E 012°10'1111.4
2016-Apr-22 13:33N 56°15' E 012°22'1110.7
2016-Apr-22 12:33N 56°07' E 012°34'9 9.1
2016-Apr-22 11:33N 55°59' E 012°42'10 9.9
2016-Apr-22 10:33N 55°49' E 012°43'1110.7
2016-Apr-22 09:33N 55°38' E 012°42'1010.0
2016-Apr-22 08:33N 55°28' E 012°42'1010.3
2016-Apr-22 07:33N 55°18' E 012°43'1110.6
2016-Apr-22 06:33N 55°13' E 012°59'8210.2
2016-Apr-21 22:33N 54°04' E 014°15'9 9.1
2016-Apr-21 21:33N 53°55' E 014°16'8 8.2
2016-Apr-21 20:33N 53°47' E 014°22'  

Dump ship's entire track history